バンギ の空港の天気 - METARとTAF

バンギ・ムポコ国際空港 ( FEFF / BGF ) - 中央アフリカ バンギ
飛行場実況気象(Metar)
観測時間02/17 15:00 WAT (02/17 14:00 UTC)
風向・風速不定 1m/s
視程4000m
天気現象煙霧
なし
気温34℃
湿度16%
気圧1008hPa
METARFEFF 171400Z VRB02KT 4000 HZ SKC 34/05 Q1008 NOSIG
過去の天気等 Google飛行場航空写真 Wunderground天気予報

過去48時間のMETAR

飛行場予報(TAF)
発表時間: 2/17 12:00 WAT (2/17 11:00 UTC)
予報対象時間: 17日13時 WAT ~ 18日19時 WAT
風向・風速西北西 2m/s
視程6000m
なし
17日15時 WAT ~ 17日17時 WAT に徐々に
視程3000m
天気現象煙霧煙
17日21時 WAT ~ 17日23時 WAT に徐々に
視程6000m
天気現象運行に影響にある天気現象が終了
18日4時 WAT ~ 18日6時 WAT に徐々に
視程1500m
天気現象もや
全天の8割程度の雲 雲底高度 120m
18日8時 WAT ~ 18日10時 WAT に徐々に
視程4000m
天気現象煙霧
TAF FEFF 171100Z 1712/1818 30004KT 6000 NSC
BECMG 1714/1716 3000 HZFU
BECMG 1720/1722 6000 NSW
BECMG 1803/1805 1500 BR BKN004
BECMG 1807/1809 4000 HZ